createdAt,value
2022-11-15T00:05:29.701Z,99.59
2022-11-15T00:11:41.498Z,99.58
2022-11-15T00:17:52.688Z,99.71
2022-11-15T00:24:03.648Z,99.28
2022-11-15T00:30:15.747Z,99.77
2022-11-15T00:36:27.728Z,99.26
2022-11-15T00:42:38.989Z,99.50
2022-11-15T00:48:49.596Z,99.40
2022-11-15T00:55:00.930Z,99.78
2022-11-15T01:01:14.892Z,99.18
2022-11-15T01:07:25.973Z,99.50
2022-11-15T01:13:38.128Z,99.32
2022-11-15T01:19:49.239Z,98.78
2022-11-15T01:26:04.068Z,98.86
2022-11-15T01:32:16.081Z,99.09
2022-11-15T01:38:26.950Z,99.32
2022-11-15T01:44:46.558Z,99.67
2022-11-15T01:50:58.876Z,99.63
2022-11-15T01:57:13.299Z,99.54
2022-11-15T02:03:33.148Z,99.06
2022-11-15T02:09:46.468Z,99.32
2022-11-15T02:16:28.597Z,99.68
2022-11-15T02:22:53.418Z,99.26
2022-11-15T02:29:32.609Z,99.61
2022-11-15T02:36:01.029Z,99.20
2022-11-15T02:42:45.827Z,99.39
2022-11-15T02:48:56.986Z,99.57
2022-11-15T02:55:32.296Z,99.25
2022-11-15T03:01:50.177Z,99.33
2022-11-15T03:08:19.149Z,99.49
2022-11-15T03:14:46.187Z,99.99
2022-11-15T03:21:00.008Z,100.00
2022-11-15T03:27:15.927Z,99.60
2022-11-15T03:33:29.582Z,99.97
2022-11-15T03:39:41.847Z,99.81
2022-11-15T03:46:03.007Z,99.33
2022-11-15T03:52:18.910Z,100.00
2022-11-15T03:58:29.978Z,99.57
2022-11-15T04:04:41.367Z,99.77
2022-11-15T04:10:52.927Z,100.00
2022-11-15T04:17:05.308Z,100.00
2022-11-15T04:23:38.718Z,100.00
2022-11-15T04:29:49.258Z,100.00
2022-11-15T04:36:19.058Z,100.00
2022-11-15T04:42:30.337Z,100.00
2022-11-15T04:48:41.330Z,99.85
2022-11-15T04:54:54.548Z,99.84
2022-11-15T05:01:13.317Z,99.81
2022-11-15T05:07:24.688Z,99.75
2022-11-15T05:13:35.529Z,99.43
2022-11-15T05:19:47.448Z,99.33
2022-11-15T05:26:06.523Z,99.63
2022-11-15T05:32:20.962Z,99.77
2022-11-15T05:38:32.999Z,99.67
2022-11-15T05:44:50.461Z,99.50
2022-11-15T05:51:03.719Z,99.84
2022-11-15T05:57:15.138Z,99.78
2022-11-15T06:03:26.679Z,99.76
2022-11-15T06:09:38.670Z,99.74
2022-11-15T06:15:49.868Z,99.75
2022-11-15T06:22:01.864Z,100.00
2022-11-15T06:28:12.664Z,99.34
2022-11-15T06:34:23.982Z,99.18
2022-11-15T06:40:37.758Z,99.13
2022-11-15T06:46:49.910Z,99.41
2022-11-15T06:53:03.342Z,98.91
2022-11-15T06:59:14.830Z,99.13
2022-11-15T07:05:26.002Z,99.38
2022-11-15T07:11:37.101Z,98.57
2022-11-15T07:17:48.939Z,95.17
2022-11-15T07:23:59.582Z,92.86
2022-11-15T07:30:11.413Z,90.59
2022-11-15T07:36:23.170Z,85.30
2022-11-15T07:42:52.881Z,84.07
2022-11-15T07:49:03.779Z,84.52
2022-11-15T07:55:15.076Z,81.36
2022-11-15T08:01:26.404Z,74.38
2022-11-15T08:07:39.429Z,72.97
2022-11-15T08:13:50.822Z,71.80
2022-11-15T08:20:04.257Z,69.92
2022-11-15T08:26:15.829Z,64.85
2022-11-15T08:32:28.930Z,63.50
2022-11-15T08:38:41.005Z,61.55
2022-11-15T08:44:52.211Z,61.81
2022-11-15T08:51:03.340Z,62.61
2022-11-15T08:57:16.443Z,60.57
2022-11-15T09:03:29.224Z,59.18
2022-11-15T09:09:40.894Z,58.69
2022-11-15T09:15:52.090Z,59.49
2022-11-15T09:22:07.297Z,60.52
2022-11-15T09:28:19.505Z,62.08
2022-11-15T09:34:31.268Z,62.49
2022-11-15T09:40:42.470Z,64.06
2022-11-15T09:46:56.666Z,63.87
2022-11-15T09:54:37.483Z,64.15
2022-11-15T10:06:36.291Z,65.10
2022-11-15T10:12:30.440Z,65.82
2022-11-15T10:18:52.264Z,66.39
2022-11-15T10:24:47.829Z,64.37
2022-11-15T10:30:52.440Z,65.31
2022-11-15T10:37:00.638Z,68.34
2022-11-15T10:43:10.266Z,69.50
2022-11-15T10:49:31.207Z,69.88
2022-11-15T10:55:32.072Z,70.13
2022-11-15T11:01:27.567Z,70.76
2022-11-15T11:07:24.313Z,71.36
2022-11-15T11:13:26.349Z,71.01
2022-11-15T11:19:33.660Z,70.83
2022-11-15T11:26:08.283Z,69.65
2022-11-15T11:32:31.761Z,70.10
2022-11-15T11:38:42.509Z,69.89
2022-11-15T11:44:37.242Z,69.02
2022-11-15T11:50:29.789Z,68.92
2022-11-15T11:56:29.726Z,68.37
2022-11-15T12:02:33.329Z,66.79
2022-11-15T12:09:01.679Z,66.63
2022-11-15T12:15:14.780Z,66.53
2022-11-15T12:21:28.246Z,66.62
2022-11-15T12:27:34.219Z,67.45
2022-11-15T12:33:45.764Z,67.85
2022-11-15T12:40:20.020Z,67.99
2022-11-15T12:46:25.961Z,67.94
2022-11-15T12:52:19.793Z,67.40
2022-11-15T12:58:30.745Z,69.30
2022-11-15T13:04:27.895Z,69.64
2022-11-15T13:10:28.268Z,70.51
2022-11-15T13:16:22.549Z,71.61
2022-11-15T13:22:34.430Z,72.09
2022-11-15T13:28:37.259Z,72.52
2022-11-15T13:34:51.630Z,73.01
2022-11-15T13:40:45.939Z,72.96
2022-11-15T13:46:39.089Z,73.48
2022-11-15T13:52:36.812Z,73.85
2022-11-15T13:58:31.589Z,73.94
2022-11-15T14:04:26.640Z,73.73
2022-11-15T14:10:40.629Z,74.07
2022-11-15T14:16:40.511Z,74.67
2022-11-15T14:22:33.253Z,74.75
2022-11-15T14:28:26.549Z,75.40
2022-11-15T14:34:19.119Z,75.75
2022-11-15T14:40:16.010Z,76.80
2022-11-15T14:46:09.350Z,78.76
2022-11-15T14:52:02.207Z,79.23
2022-11-15T14:57:55.711Z,80.87
2022-11-15T15:03:48.620Z,81.84
2022-11-15T15:09:43.674Z,82.89
2022-11-15T15:15:39.079Z,84.05
2022-11-15T15:21:37.459Z,85.30
2022-11-15T15:27:30.231Z,85.61
2022-11-15T15:33:27.549Z,86.59
2022-11-15T15:39:19.732Z,87.26
2022-11-15T15:45:12.508Z,87.34
2022-11-15T15:51:12.140Z,88.85
2022-11-15T15:57:12.831Z,89.31
2022-11-15T16:03:05.320Z,90.52
2022-11-15T16:09:14.220Z,90.46
2022-11-15T16:15:09.754Z,90.40
2022-11-15T16:21:02.407Z,90.05
2022-11-15T16:26:55.235Z,91.68
2022-11-15T16:32:52.177Z,91.41
2022-11-15T16:38:45.210Z,91.39
2022-11-15T16:44:37.361Z,93.03
2022-11-15T16:50:36.369Z,94.00
2022-11-15T16:56:33.639Z,95.03
2022-11-15T17:02:26.550Z,95.97
2022-11-15T17:08:23.211Z,95.36
2022-11-15T17:14:19.700Z,94.36
2022-11-15T17:20:18.220Z,94.67
2022-11-15T17:26:28.864Z,95.12
2022-11-15T17:32:24.319Z,95.63
2022-11-15T17:38:19.398Z,96.42
2022-11-15T17:44:16.961Z,96.07
2022-11-15T17:50:12.482Z,96.18
2022-11-15T17:56:05.769Z,97.11
2022-11-15T18:02:00.393Z,97.38
2022-11-15T18:07:53.820Z,97.24
2022-11-15T18:13:52.084Z,96.64
2022-11-15T18:19:44.740Z,96.03
2022-11-15T18:25:37.721Z,96.08
2022-11-15T18:31:32.252Z,96.54
2022-11-15T18:37:24.661Z,97.54
2022-11-15T18:43:17.580Z,97.98
2022-11-15T18:49:11.158Z,97.40
2022-11-15T18:55:03.970Z,96.95
2022-11-15T19:01:07.467Z,96.51
2022-11-15T19:06:59.770Z,96.53
2022-11-15T19:12:52.632Z,96.96
2022-11-15T19:18:44.355Z,97.43
2022-11-15T19:24:37.559Z,97.38
2022-11-15T19:30:30.830Z,97.09
2022-11-15T19:36:29.553Z,96.80
2022-11-15T19:42:22.953Z,96.44
2022-11-15T19:48:18.070Z,96.63
2022-11-15T19:54:12.599Z,96.81
2022-11-15T20:00:07.515Z,95.85
2022-11-15T20:06:08.226Z,95.88
2022-11-15T20:12:00.901Z,95.94
2022-11-15T20:17:53.980Z,96.19
2022-11-15T20:23:53.122Z,95.96
2022-11-15T20:29:49.481Z,96.54
2022-11-15T20:35:44.487Z,96.12
2022-11-15T20:41:37.739Z,96.40
2022-11-15T20:47:32.750Z,95.79
2022-11-15T20:53:30.557Z,95.21
2022-11-15T20:59:28.024Z,94.58
2022-11-15T21:05:22.149Z,95.15
2022-11-15T21:11:34.785Z,94.60
2022-11-15T21:17:28.705Z,95.09
2022-11-15T21:23:21.644Z,95.51
2022-11-15T21:29:17.606Z,95.69
2022-11-15T21:35:10.518Z,95.23
2022-11-15T21:41:04.543Z,95.33
2022-11-15T21:46:57.432Z,95.62
2022-11-15T21:52:50.700Z,95.83
2022-11-15T21:58:42.691Z,95.83
2022-11-15T22:11:41.033Z,95.98
2022-11-15T22:17:52.525Z,96.37
2022-11-15T22:23:46.355Z,96.10
2022-11-15T22:29:39.723Z,96.61
2022-11-15T22:35:34.030Z,96.24
2022-11-15T22:41:26.353Z,94.92
2022-11-15T22:47:20.132Z,94.71
2022-11-15T22:53:12.632Z,95.84
2022-11-15T22:59:05.262Z,95.82
2022-11-15T23:04:57.793Z,95.75
2022-11-15T23:11:09.039Z,95.70
2022-11-15T23:17:01.551Z,95.44
2022-11-15T23:22:54.472Z,95.86
2022-11-15T23:28:47.355Z,95.99
2022-11-15T23:34:42.061Z,95.50
2022-11-15T23:40:34.150Z,95.75
2022-11-15T23:46:26.602Z,96.96
2022-11-15T23:52:19.631Z,96.04
2022-11-15T23:58:12.522Z,96.34
